x

Portland 12 Nm Southeast Of Portland,me (44007) Wave Buoy

11:50am - Sun 23rd Nov 2014 All times are EST. -5 hours from GMT.

  • Sig Wave height 3.3ft
  • Swell Direction
  • Peak Period 6s
  • Average Period 4s
  • Wind
    16mph, 18mph gusts
  • Sea Temp 51°f
  • Air Temp 48°f
  • Sea Pressure 1017.8mb
  • Portland 12 Nm Southeast Of Portland,me
  • Portland 12 Nm Southeast Of Portland,me

More Historic Weather Station data

Upgrade to MSW Pro to gain access to the past 30 days of data for over 8000 Wavebouys and Weather Stations around the globe.

Join Pro

Comparision Forecast

View Surf forecast
   
Sun 11/23 11:50am 3.5ft 6s 4s 16 18 mph 1017.8mb 51f 48f
10:50am 3.5ft 6s 5s 16 20 mph 1018.1mb 50f 47f
9:50am 3.5ft 6s 4s 18 22 mph 1018.5mb 50f 46f
8:50am 4ft 6s 5s 22 27 mph 1017.4mb 50f 46f
7:50am 4.5ft 6s 5s 22 25 mph 1017mb 50f 45f
6:50am 4.5ft 6s 5s 20 25 mph 1016.4mb 50f 45f
5:50am 4.5ft 7s 5s 22 25 mph 1015.8mb 50f 45f
4:50am 4.5ft 7s 5s 20 22 mph 1015.6mb 50f 44f
3:50am 5ft 8s 5s 25 27 mph 1015.1mb 50f 44f
2:50am 5ft 7s 5s 27 31 mph 1014.8mb 50f 44f
1:50am 5.5ft 8s 5s 27 29 mph 1014.9mb 50f 44f
12:50am 6ft 8s 5s 27 31 mph 1014.2mb 50f 44f
Sat 11/22 11:50pm 6ft 7s 5s 27 34 mph 1014.1mb 50f 44f
10:50pm 6ft 7s 5s 27 31 mph 1014.2mb 50f 44f
9:50pm 6ft 7s 5s 29 36 mph 1014.2mb 50f 44f
8:50pm 5ft 6s 5s 29 34 mph 1014.4mb 50f 44f
7:50pm 5ft 6s 4s 29 38 mph 1014.8mb 50f 44f
6:50pm 4.5ft 6s 4s 27 34 mph 1016mb 50f 44f
5:50pm 5ft 5s 4s 27 34 mph 1016.8mb 50f 42f
4:50pm 4.5ft 6s 4s 29 34 mph 1017mb 50f 42f
3:50pm 4ft 5s 4s 27 34 mph 1017.8mb 51f 40f
2:50pm 4ft 5s 4s 27 31 mph 1018.4mb 51f 39f
1:50pm 3.5ft 5s 4s 20 25 mph 1019.8mb 50f 37f
12:50pm 3.5ft 5s 4s 25 29 mph 1020.7mb 50f 35f
11:50am 3.5ft 4s 4s 27 31 mph 1021.7mb 50f 33f
10:50am 3ft 4s 4s 22 29 mph 1023.5mb 50f 31f
9:50am 2.5ft 4s 4s 20 27 mph 1025.5mb 50f 30f
8:50am 2.5ft 4s 4s 18 22 mph 1026.2mb 50f 29f
7:50am 2.5ft 4s 3s 18 25 mph 1026.9mb 50f 29f
6:50am 1.6ft 3s 3s 18 20 mph 1027.1mb 50f 28f
5:50am 1.6ft 3s 3s 18 25 mph 1027.4mb 50f 28f
4:50am 2ft 3s 3s 20 25 mph 1027.9mb 50f 28f
3:50am 1.6ft 3s 3s 20 25 mph 1027.4mb 50f 28f
2:50am 1.6ft 3s 3s 18 25 mph 1027.8mb 50f 28f
1:50am 1.6ft 3s 3s 18 22 mph 1027.8mb 50f 28f
12:50am 1.3ft 3s 3s 16 22 mph 1027.3mb 50f 28f
Fri 11/21 11:50pm 1.3ft 3s 3s 16 20 mph 1027.3mb 50f 27f
10:50pm 1.6ft 3s 3s 18 22 mph 1026.7mb 50f 28f
9:50pm 1.6ft 3s 3s 16 20 mph 1026.5mb 51f 28f
8:50pm 1.6ft 3s 3s 18 25 mph 1026mb 51f 29f
7:50pm 1.6ft 3s 3s 18 25 mph 1025.2mb 50f 29f
6:50pm 1.6ft 3s 3s 22 27 mph 1024.5mb 50f 31f
5:50pm 1.3ft 3s 3s 20 25 mph 1023.7mb 51f 31f
4:50pm 2ft 3s 3s 20 27 mph 1022.6mb 51f 31f
3:50pm 2ft 3s 3s 25 31 mph 1021mb 51f 32f
2:50pm 2.5ft 3s 3s 25 31 mph 1019.6mb 51f 33f
1:50pm 2.5ft 3s 3s 27 34 mph 1018.2mb 51f 33f
12:50pm 2.5ft 3s 3s 22 31 mph 1017.4mb 51f 33f
11:50am 2.5ft 3s 3s 25 34 mph 1016.3mb 51f 33f
10:50am 2.5ft 3s 3s 22 29 mph 1016.1mb 51f 32f
9:50am 2.5ft 4s 4s 20 29 mph 1015.8mb 51f 31f
8:50am 2.5ft 3s 3s 22 29 mph 1014.8mb 51f 30f
7:50am 2.5ft 5s 4s 22 29 mph 1014.1mb 51f 30f
6:50am 2.5ft 3s 3s 27 34 mph 1012.9mb 51f 31f
5:50am 2.5ft 3s 3s 25 29 mph 1012.3mb 51f 31f
4:50am 2.5ft 3s 3s 27 34 mph 1011.4mb 51f 31f
3:50am 2.5ft 3s 3s 27 31 mph 1011.1mb 51f 32f
2:50am 2.5ft 3s 3s 25 31 mph 1010.7mb 51f 33f
1:50am 2.5ft 3s 3s 25 29 mph 1010.4mb 51f 33f
12:50am 2.5ft 3s 3s 25 31 mph 1010.2mb 51f 34f
Thu 11/20 11:50pm 2.5ft 3s 3s 20 25 mph 1010.4mb 51f 34f
10:50pm 2.5ft 3s 3s 22 29 mph 1010.2mb 51f 35f
9:50pm 2.5ft 3s 4s 22 27 mph 1010.2mb 51f 36f
8:50pm 2.5ft 5s 4s 22 27 mph 1010.2mb 51f 37f
7:50pm 2.5ft 6s 4s 20 25 mph 1009.7mb 51f 37f
6:50pm 3ft 6s 4s 18 20 mph 1009.5mb 51f 38f
5:50pm 3.5ft 6s 4s 20 25 mph 1008.3mb 51f 39f
4:50pm 3.5ft 6s 4s 22 25 mph 1007.3mb 51f 42f
3:50pm 4ft 6s 4s 20 27 mph 1006.7mb 51f 43f
2:50pm 3.5ft 6s 5s 20 27 mph 1006.3mb 51f 43f
1:50pm 3.5ft 6s 5s 16 20 mph 1007mb 52f 42f
12:50pm 3.5ft 7s 5s 16 22 mph 1007.4mb 51f 41f
11:50am 4ft 6s 5s 16 18 mph 1008.3mb 51f 39f
10:50am 4.5ft 6s 5s 18 22 mph 1009.3mb 51f 39f
9:50am 4.5ft 6s 5s 22 27 mph 1010.2mb 51f 37f
8:50am 4.5ft 7s 5s 20 25 mph 1010.9mb 51f 36f
7:50am 4.5ft 6s 5s 20 25 mph 1011.4mb 51f 35f
6:50am 4.5ft 7s 5s 22 27 mph 1011.5mb 51f 35f
5:50am 4.5ft 6s 5s 22 31 mph 1012mb 51f 35f
4:50am 4.5ft 7s 5s 22 29 mph 1012.7mb 51f 36f
3:50am 5ft 6s 5s 22 27 mph 1013.6mb 51f 35f
2:50am 5ft 6s 5s 25 29 mph 1014.3mb 51f 34f
1:50am 5ft 6s 5s 25 31 mph 1015.3mb 51f 34f
12:50am 4.5ft 6s 4s 22 27 mph 1016.2mb 51f 34f
Wed 11/19 11:50pm 4.5ft 5s 4s 25 31 mph 1016.8mb 51f 35f
10:50pm 4.5ft 5s 4s 22 31 mph 1016.8mb 51f 36f
9:50pm 4ft 5s 4s 22 31 mph 1017.3mb 51f 36f
8:50pm 3ft 4s 4s 25 29 mph 1017.4mb 52f 36f
7:50pm 2.5ft 4s 4s 22 27 mph 1017.5mb 51f 36f
6:50pm 2.5ft 11s 4s 20 22 mph 1018.1mb 51f 37f
5:50pm 2ft 11s 4s 20 25 mph 1018.3mb 51f 37f